Time;durP1;ratioP1;P1;durP2;ratioP2;P2;SDS_P1;SDS_P2;PMS_P1;PMS_P2;Temp;Humidity;BMP_temperature;BMP_pressure;BME280_temperature;BME280_humidity;BME280_pressure;Samples;Min_cycle;Max_cycle;Signal;HPM_P1;HPM_P2
2023/05/31 00:01:56;;;;;;;;;;;;;;;;;;5083850;28;19942;-78
2023/05/31 00:04:24;;;;;;;;;;;;;;;;;;5088885;28;20011;-78
2023/05/31 00:07:00;;;;;;;;;;;;;;;;;;5121834;27;19981;-77
2023/05/31 00:09:27;;;;;;;;;;;;;;;;;;5108811;28;19924;-77
2023/05/31 00:11:54;;;;;;;;;;;;;;;;;;5109398;28;20350;-77
2023/05/31 00:14:21;;;;;;;;;;;;;;;;;;5108306;28;19924;-76
2023/05/31 00:16:48;;;;;;;;;;;;;;;;;;5109396;28;19969;-77
2023/05/31 00:19:15;;;;;;;;;;;;;;;;;;5108816;28;19924;-77
2023/05/31 00:21:42;;;;;;;;;;;;;;;;;;5099942;28;20027;-77
2023/05/31 00:24:09;;;;;;;;;;;;;;;;;;5107425;28;19930;-77
2023/05/31 00:26:36;;;;;;;;;;;;;;;;;;5111099;28;19931;-77
2023/05/31 00:29:03;;;;;;;;;;;;;;;;;;5109292;28;19924;-76
2023/05/31 00:31:30;;;;;;;;;;;;;;;;;;5110213;28;20018;-76
2023/05/31 00:33:57;;;;;;;;;;;;;;;;;;5109860;28;20011;-76
2023/05/31 00:36:24;;;;;;;;;;;;;;;;;;5108942;28;19924;-76
2023/05/31 00:38:51;;;;;;;;;;;;;;;;;;5109117;28;19946;-76
2023/05/31 00:41:18;;;;;;;;;;;;;;;;;;5115909;28;19963;-76
2023/05/31 00:43:45;;;;;;;;;;;;;;;;;;5109324;28;19928;-76
2023/05/31 00:46:12;;;;;;;;;;;;;;;;;;5109339;28;19924;-75
2023/05/31 00:48:42;;;;;;;;;;;;;;;;;;5109013;28;19924;-76
2023/05/31 00:51:09;;;;;;;;;;;;;;;;;;5108893;28;19963;-76
2023/05/31 00:53:36;;;;;;;;;;;;;;;;;;5108851;28;20451;-77
2023/05/31 00:56:03;;;;;;;;;;;;;;;;;;5109204;28;19985;-76
2023/05/31 00:58:30;;;;;;;;;;;;;;;;;;5107212;28;19959;-75
2023/05/31 01:00:57;;;;;;;;;;;;;;;;;;5106769;28;19939;-74
2023/05/31 01:03:24;;;;;;;;;;;;;;;;;;5107663;28;20018;-74
2023/05/31 01:05:51;;;;;;;;;;;;;;;;;;5118943;28;19928;-74
2023/05/31 01:08:18;;;;;;;;;;;;;;;;;;5128321;28;19923;-75
2023/05/31 01:10:45;;;;;;;;;;;;;;;;;;5128148;27;19967;-77
2023/05/31 01:13:12;;;;;;;;;;;;;;;;;;5126404;27;20396;-76
2023/05/31 01:15:39;;;;;;;;;;;;;;;;;;5131147;27;20271;-76
2023/05/31 01:18:09;;;;;;;;;;;;;;;;;;5115754;27;20346;-78
2023/05/31 01:20:36;;;;;;;;;;;;;;;;;;5113994;28;19924;-76
2023/05/31 01:23:03;;;;;;;;;;;;;;;;;;5113946;28;20393;-76
2023/05/31 01:25:30;;;;;;;;;;;;;;;;;;5114426;28;19984;-77
2023/05/31 01:27:57;;;;;;;;;;;;;;;;;;5114639;28;20018;-76
2023/05/31 01:30:24;;;;;;;;;;;;;;;;;;5111479;28;20063;-76
2023/05/31 01:32:51;;;;;;;;;;;;;;;;;;5111027;27;19935;-76
2023/05/31 01:35:18;;;;;;;;;;;;;;;;;;5113162;28;20010;-77
2023/05/31 01:37:45;;;;;;;;;;;;;;;;;;5114450;28;19960;-77
2023/05/31 01:40:12;;;;;;;;;;;;;;;;;;5114271;28;20381;-77
2023/05/31 01:42:39;;;;;;;;;;;;;;;;;;5115298;28;19924;-76
2023/05/31 01:45:06;;;;;;;;;;;;;;;;;;5113205;28;20410;-75
2023/05/31 01:47:33;;;;;;;;;;;;;;;;;;5104591;28;19971;-76
2023/05/31 01:50:00;;;;;;;;;;;;;;;;;;5130234;27;19927;-76
2023/05/31 01:52:27;;;;;;;;;;;;;;;;;;5136238;27;19967;-76
2023/05/31 01:54:54;;;;;;;;;;;;;;;;;;5115249;27;20350;-75
2023/05/31 01:57:22;;;;;;;;;;;;;;;;;;5114509;28;20010;-76
2023/05/31 01:59:49;;;;;;;;;;;;;;;;;;5114706;28;20319;-76
2023/05/31 02:02:16;;;;;;;;;;;;;;;;;;5114569;28;19923;-76
2023/05/31 02:04:43;;;;;;;;;;;;;;;;;;5110342;28;20019;-78
2023/05/31 02:07:12;;;;;;;;;;;;;;;;;;5115007;27;19923;-77
2023/05/31 02:09:39;;;;;;;;;;;;;;;;;;5114260;28;20343;-77
2023/05/31 02:12:06;;;;;;;;;;;;;;;;;;5111244;28;19932;-78
2023/05/31 02:14:33;;;;;;;;;;;;;;;;;;5113817;28;19939;-77
2023/05/31 02:17:00;;;;;;;;;;;;;;;;;;5115108;28;19924;-77
2023/05/31 02:19:28;;;;;;;;;;;;;;;;;;5113341;28;19923;-77
2023/05/31 02:21:55;;;;;;;;;;;;;;;;;;5113092;28;19930;-77
2023/05/31 02:24:22;;;;;;;;;;;;;;;;;;5100813;27;20414;-76
2023/05/31 02:26:49;;;;;;;;;;;;;;;;;;5106930;28;19967;-77
2023/05/31 02:29:16;;;;;;;;;;;;;;;;;;5112439;28;19951;-78
2023/05/31 02:31:43;;;;;;;;;;;;;;;;;;5114287;28;19923;-77
2023/05/31 02:34:10;;;;;;;;;;;;;;;;;;5113736;28;19924;-79
2023/05/31 02:36:37;;;;;;;;;;;;;;;;;;5113888;28;19977;-77
2023/05/31 02:39:04;;;;;;;;;;;;;;;;;;5114308;28;20022;-77
2023/05/31 02:41:31;;;;;;;;;;;;;;;;;;5111545;27;20408;-76
2023/05/31 02:43:58;;;;;;;;;;;;;;;;;;5113280;28;19978;-78
2023/05/31 02:46:25;;;;;;;;;;;;;;;;;;5112347;28;19930;-77
2023/05/31 02:48:52;;;;;;;;;;;;;;;;;;5110293;28;19927;-76
2023/05/31 02:51:19;;;;;;;;;;;;;;;;;;5094123;28;19979;-76
2023/05/31 02:53:46;;;;;;;;;;;;;;;;;;5102624;28;19990;-77
2023/05/31 02:56:13;;;;;;;;;;;;;;;;;;5114218;27;19971;-77
2023/05/31 02:58:40;;;;;;;;;;;;;;;;;;5118083;27;19927;-76
2023/05/31 03:01:07;;;;;;;;;;;;;;;;;;5112373;28;19924;-76
2023/05/31 03:03:34;;;;;;;;;;;;;;;;;;5115615;28;19992;-76
2023/05/31 03:06:01;;;;;;;;;;;;;;;;;;5113514;28;19946;-76
2023/05/31 03:08:28;;;;;;;;;;;;;;;;;;5114259;28;19924;-76
2023/05/31 03:10:55;;;;;;;;;;;;;;;;;;5111263;28;20018;-77
2023/05/31 03:13:22;;;;;;;;;;;;;;;;;;5098450;28;19970;-76
2023/05/31 03:15:49;;;;;;;;;;;;;;;;;;5112202;28;19930;-75
2023/05/31 03:18:16;;;;;;;;;;;;;;;;;;5106128;28;20382;-77
2023/05/31 03:20:43;;;;;;;;;;;;;;;;;;5112992;28;20355;-76
2023/05/31 03:23:10;;;;;;;;;;;;;;;;;;5112793;28;20369;-77
2023/05/31 03:25:37;;;;;;;;;;;;;;;;;;5112425;28;19935;-77
2023/05/31 03:28:04;;;;;;;;;;;;;;;;;;5110962;28;19930;-78
2023/05/31 03:30:31;;;;;;;;;;;;;;;;;;5110979;28;20398;-76
2023/05/31 03:32:58;;;;;;;;;;;;;;;;;;5111475;28;20347;-77
2023/05/31 03:35:25;;;;;;;;;;;;;;;;;;5112705;28;19931;-78
2023/05/31 03:37:52;;;;;;;;;;;;;;;;;;5110215;28;19977;-78
2023/05/31 03:40:19;;;;;;;;;;;;;;;;;;5111426;28;20464;-76
2023/05/31 03:42:46;;;;;;;;;;;;;;;;;;5109797;28;19924;-76
2023/05/31 03:45:13;;;;;;;;;;;;;;;;;;5105674;28;20010;-76
2023/05/31 03:47:40;;;;;;;;;;;;;;;;;;5116397;27;19930;-77
2023/05/31 03:50:07;;;;;;;;;;;;;;;;;;5113810;28;19928;-78
2023/05/31 03:52:37;;;;;;;;;;;;;;;;;;5110730;28;19946;-77
2023/05/31 03:55:04;;;;;;;;;;;;;;;;;;5112272;28;20012;-76
2023/05/31 03:57:31;;;;;;;;;;;;;;;;;;5113279;28;19928;-77
2023/05/31 03:59:59;;;;;;;;;;;;;;;;;;5111046;28;20019;-76
2023/05/31 04:02:26;;;;;;;;;;;;;;;;;;5111162;28;20278;-75
2023/05/31 04:04:53;;;;;;;;;;;;;;;;;;5112634;28;19923;-75
2023/05/31 04:07:20;;;;;;;;;;;;;;;;;;5112269;28;19924;-75
2023/05/31 04:09:47;;;;;;;;;;;;;;;;;;5110865;28;19927;-75
2023/05/31 04:12:14;;;;;;;;;;;;;;;;;;5111893;28;20347;-75
2023/05/31 04:14:41;;;;;;;;;;;;;;;;;;5108741;28;20022;-76
2023/05/31 04:17:08;;;;;;;;;;;;;;;;;;5095888;28;19962;-77
2023/05/31 04:19:35;;;;;;;;;;;;;;;;;;5111586;28;19977;-77
2023/05/31 04:22:03;;;;;;;;;;;;;;;;;;5112631;28;20426;-77
2023/05/31 04:24:30;;;;;;;;;;;;;;;;;;5103424;28;19931;-75
2023/05/31 04:26:57;;;;;;;;;;;;;;;;;;5107711;28;20397;-76
2023/05/31 04:29:26;;;;;;;;;;;;;;;;;;5113336;28;19924;-76
2023/05/31 04:31:53;;;;;;;;;;;;;;;;;;5112769;28;19924;-76
2023/05/31 04:34:20;;;;;;;;;;;;;;;;;;5110620;28;19930;-77
2023/05/31 04:36:49;;;;;;;;;;;;;;;;;;5109881;28;19967;-75
2023/05/31 04:39:16;;;;;;;;;;;;;;;;;;5121061;28;19969;-76
2023/05/31 04:41:43;;;;;;;;;;;;;;;;;;5133140;28;19923;-77
2023/05/31 04:44:10;;;;;;;;;;;;;;;;;;5113307;28;20010;-77
2023/05/31 04:46:40;;;;;;;;;;;;;;;;;;5111994;28;19930;-77
2023/05/31 04:49:07;;;;;;;;;;;;;;;;;;5112173;28;19924;-76
2023/05/31 04:51:34;;;;;;;;;;;;;;;;;;5112822;28;19976;-76
2023/05/31 04:54:02;;;;;;;;;;;;;;;;;;5115773;28;20022;-76
2023/05/31 04:56:29;;;;;;;;;;;;;;;;;;5115843;28;20413;-76
2023/05/31 04:58:56;;;;;;;;;;;;;;;;;;5114304;28;19923;-75
2023/05/31 05:01:24;;;;;;;;;;;;;;;;;;5114778;28;19943;-76
2023/05/31 05:03:52;;;;;;;;;;;;;;;;;;5110733;28;20421;-74
2023/05/31 05:06:19;;;;;;;;;;;;;;;;;;5109407;28;20022;-76
2023/05/31 05:08:46;;;;;;;;;;;;;;;;;;5113352;28;19931;-76
2023/05/31 05:11:13;;;;;;;;;;;;;;;;;;5097182;28;19974;-75
2023/05/31 05:13:41;;;;;;;;;;;;;;;;;;5113231;27;19930;-75
2023/05/31 05:16:08;;;;;;;;;;;;;;;;;;5110324;28;19930;-76
2023/05/31 05:18:35;;;;;;;;;;;;;;;;;;5113707;27;20003;-77
2023/05/31 05:21:02;;;;;;;;;;;;;;;;;;5111693;28;20366;-76
2023/05/31 05:23:29;;;;;;;;;;;;;;;;;;5108677;28;20618;-77
2023/05/31 05:25:56;;;;;;;;;;;;;;;;;;5110066;28;20381;-76
2023/05/31 05:28:23;;;;;;;;;;;;;;;;;;5113033;28;20381;-75
2023/05/31 05:30:50;;;;;;;;;;;;;;;;;;5112117;27;20425;-77
2023/05/31 05:33:17;;;;;;;;;;;;;;;;;;5113371;28;19923;-76
2023/05/31 05:35:44;;;;;;;;;;;;;;;;;;5113163;28;19930;-77
2023/05/31 05:38:11;;;;;;;;;;;;;;;;;;5113484;28;19924;-75
2023/05/31 05:40:38;;;;;;;;;;;;;;;;;;5113658;28;20023;-75
2023/05/31 05:43:05;;;;;;;;;;;;;;;;;;5113013;28;20000;-75
2023/05/31 05:45:32;;;;;;;;;;;;;;;;;;5109717;28;19981;-75
2023/05/31 05:47:59;;;;;;;;;;;;;;;;;;5110001;27;19931;-76
2023/05/31 05:50:26;;;;;;;;;;;;;;;;;;5108812;28;19940;-76
2023/05/31 05:52:53;;;;;;;;;;;;;;;;;;5113564;28;19971;-75
2023/05/31 05:55:20;;;;;;;;;;;;;;;;;;5114715;28;20405;-79
2023/05/31 05:57:47;;;;;;;;;;;;;;;;;;5115120;28;19932;-78
2023/05/31 06:00:15;;;;;;;;;;;;;;;;;;5114803;28;19928;-75
2023/05/31 06:02:42;;;;;;;;;;;;;;;;;;5109846;28;19927;-78
2023/05/31 06:05:09;;;;;;;;;;;;;;;;;;5117446;27;20418;-78
2023/05/31 06:07:36;;;;;;;;;;;;;;;;;;5112535;28;19924;-76
2023/05/31 06:10:03;;;;;;;;;;;;;;;;;;5111694;28;19923;-79
2023/05/31 06:12:30;;;;;;;;;;;;;;;;;;5111766;28;19989;-79
2023/05/31 06:14:57;;;;;;;;;;;;;;;;;;5106312;28;19924;-78
2023/05/31 06:17:25;;;;;;;;;;;;;;;;;;5111556;28;20011;-77
2023/05/31 06:19:52;;;;;;;;;;;;;;;;;;5107170;28;20341;-80
2023/05/31 06:22:19;;;;;;;;;;;;;;;;;;5110877;27;19924;-79
2023/05/31 06:24:46;;;;;;;;;;;;;;;;;;5111168;28;19945;-81
2023/05/31 06:27:14;;;;;;;;;;;;;;;;;;5113502;28;20414;-80
2023/05/31 06:29:41;;;;;;;;;;;;;;;;;;5113913;28;20000;-80
2023/05/31 06:32:08;;;;;;;;;;;;;;;;;;5113767;28;19924;-81
2023/05/31 06:34:35;;;;;;;;;;;;;;;;;;5112817;28;19924;-80
2023/05/31 06:37:02;;;;;;;;;;;;;;;;;;5113702;28;20018;-80
2023/05/31 06:39:29;;;;;;;;;;;;;;;;;;5112502;28;20385;-81
2023/05/31 06:41:59;;;;;;;;;;;;;;;;;;5116521;28;20364;-80
2023/05/31 06:44:26;;;;;;;;;;;;;;;;;;5114736;28;19962;-80
2023/05/31 06:46:54;;;;;;;;;;;;;;;;;;5111718;28;19976;-80
2023/05/31 06:49:21;;;;;;;;;;;;;;;;;;5109327;28;19931;-77
2023/05/31 06:51:48;;;;;;;;;;;;;;;;;;5109712;28;19934;-80
2023/05/31 06:54:15;;;;;;;;;;;;;;;;;;5106363;27;20341;-76
2023/05/31 06:56:42;;;;;;;;;;;;;;;;;;5110876;28;20372;-78
2023/05/31 06:59:09;;;;;;;;;;;;;;;;;;5107344;28;19993;-77
2023/05/31 07:01:36;;;;;;;;;;;;;;;;;;5107625;28;20048;-78
2023/05/31 07:04:03;;;;;;;;;;;;;;;;;;5113010;28;19931;-78
2023/05/31 07:06:30;;;;;;;;;;;;;;;;;;5112695;28;20100;-77
2023/05/31 07:08:57;;;;;;;;;;;;;;;;;;5109729;28;20398;-78
2023/05/31 07:11:24;;;;;;;;;;;;;;;;;;5114051;27;19967;-77
2023/05/31 07:13:54;;;;;;;;;;;;;;;;;;5108729;28;20256;-77
2023/05/31 07:16:21;;;;;;;;;;;;;;;;;;5112568;28;19924;-74
2023/05/31 07:18:48;;;;;;;;;;;;;;;;;;5112674;28;19934;-77
2023/05/31 07:21:15;;;;;;;;;;;;;;;;;;5110617;28;19970;-78
2023/05/31 07:23:42;;;;;;;;;;;;;;;;;;5109576;28;20383;-77
2023/05/31 07:26:09;;;;;;;;;;;;;;;;;;5111935;28;19984;-76
2023/05/31 07:28:36;;;;;;;;;;;;;;;;;;5114394;27;20022;-75
2023/05/31 07:31:03;;;;;;;;;;;;;;;;;;5112900;28;20045;-75
2023/05/31 07:33:30;;;;;;;;;;;;;;;;;;5110359;28;19947;-76
2023/05/31 07:35:57;;;;;;;;;;;;;;;;;;5111765;28;19949;-78
2023/05/31 07:38:24;;;;;;;;;;;;;;;;;;5112602;28;19930;-79
2023/05/31 07:40:51;;;;;;;;;;;;;;;;;;5110147;28;20010;-79
2023/05/31 07:43:20;;;;;;;;;;;;;;;;;;5112523;28;19924;-82
2023/05/31 07:45:48;;;;;;;;;;;;;;;;;;5112714;28;19974;-81
2023/05/31 07:48:15;;;;;;;;;;;;;;;;;;5110907;28;19939;-78
2023/05/31 07:50:41;;;;;;;;;;;;;;;;;;5105309;28;19953;-78
2023/05/31 07:53:08;;;;;;;;;;;;;;;;;;5109605;28;20014;-78
2023/05/31 07:55:37;;;;;;;;;;;;;;;;;;5111352;28;20015;-74
2023/05/31 07:58:04;;;;;;;;;;;;;;;;;;5111569;28;19930;-73
2023/05/31 08:00:31;;;;;;;;;;;;;;;;;;5111971;28;19924;-74
2023/05/31 08:02:58;;;;;;;;;;;;;;;;;;5111465;28;19982;-73
2023/05/31 08:05:25;;;;;;;;;;;;;;;;;;5109968;28;20007;-73
2023/05/31 08:07:52;;;;;;;;;;;;;;;;;;5111471;28;19930;-73
2023/05/31 08:10:19;;;;;;;;;;;;;;;;;;5110987;28;19924;-73
2023/05/31 08:12:46;;;;;;;;;;;;;;;;;;5111109;28;20010;-73
2023/05/31 08:15:13;;;;;;;;;;;;;;;;;;5110486;28;20046;-73
2023/05/31 08:17:40;;;;;;;;;;;;;;;;;;5110598;28;20010;-73
2023/05/31 08:20:07;;;;;;;;;;;;;;;;;;5111325;28;19928;-73
2023/05/31 08:22:34;;;;;;;;;;;;;;;;;;5111723;28;20023;-73
2023/05/31 08:25:01;;;;;;;;;;;;;;;;;;5107711;28;20386;-73
2023/05/31 08:27:28;;;;;;;;;;;;;;;;;;5110566;27;20419;-73
2023/05/31 08:29:55;;;;;;;;;;;;;;;;;;5114394;27;20013;-73
2023/05/31 08:32:22;;;;;;;;;;;;;;;;;;5117329;27;19966;-73
2023/05/31 08:34:49;;;;;;;;;;;;;;;;;;5111850;28;20038;-73
2023/05/31 08:37:16;;;;;;;;;;;;;;;;;;5108227;27;20398;-73
2023/05/31 08:39:43;;;;;;;;;;;;;;;;;;5121617;27;19955;-73
2023/05/31 08:42:10;;;;;;;;;;;;;;;;;;5119939;27;19924;-74
2023/05/31 08:44:37;;;;;;;;;;;;;;;;;;5126184;27;19967;-74
2023/05/31 08:47:04;;;;;;;;;;;;;;;;;;5117709;27;19924;-73
2023/05/31 08:49:33;;;;;;;;;;;;;;;;;;5113785;28;20010;-74
2023/05/31 08:52:01;;;;;;;;;;;;;;;;;;5114829;28;19967;-73
2023/05/31 08:54:28;;;;;;;;;;;;;;;;;;5115020;27;19930;-74
2023/05/31 08:56:55;;;;;;;;;;;;;;;;;;5102200;28;20389;-73
2023/05/31 08:59:22;;;;;;;;;;;;;;;;;;5114467;28;19923;-74
2023/05/31 09:01:49;;;;;;;;;;;;;;;;;;5114861;28;20018;-73
2023/05/31 09:04:16;;;;;;;;;;;;;;;;;;5113188;28;20432;-74
2023/05/31 09:06:43;;;;;;;;;;;;;;;;;;5106723;27;19931;-74
2023/05/31 09:09:10;;;;;;;;;;;;;;;;;;5114247;27;19930;-74
2023/05/31 09:11:40;;;;;;;;;;;;;;;;;;5119857;27;19972;-74
2023/05/31 09:14:08;;;;;;;;;;;;;;;;;;5113232;27;20026;-74
2023/05/31 09:16:35;;;;;;;;;;;;;;;;;;5125153;27;19932;-73
2023/05/31 09:19:02;;;;;;;;;;;;;;;;;;5113928;28;20022;-73
2023/05/31 09:21:29;;;;;;;;;;;;;;;;;;5110795;28;19924;-74
2023/05/31 09:23:56;;;;;;;;;;;;;;;;;;5112545;27;19928;-73
2023/05/31 09:26:24;;;;;;;;;;;;;;;;;;5111199;27;19924;-74
2023/05/31 09:28:51;;;;;;;;;;;;;;;;;;5100597;27;20393;-73
2023/05/31 09:31:18;;;;;;;;;;;;;;;;;;5103438;27;20043;-74
2023/05/31 09:33:45;;;;;;;;;;;;;;;;;;5113264;28;19923;-74
2023/05/31 09:36:12;;;;;;;;;;;;;;;;;;5112819;28;19930;-74
2023/05/31 09:38:39;;;;;;;;;;;;;;;;;;5111919;28;19924;-74
2023/05/31 09:41:06;;;;;;;;;;;;;;;;;;5112536;28;19942;-74
2023/05/31 09:43:33;;;;;;;;;;;;;;;;;;5113567;28;19930;-74
2023/05/31 09:46:00;;;;;;;;;;;;;;;;;;5111333;27;19977;-74
2023/05/31 09:48:27;;;;;;;;;;;;;;;;;;5114062;28;19924;-74
2023/05/31 09:50:54;;;;;;;;;;;;;;;;;;5112682;28;19955;-73
2023/05/31 09:53:21;;;;;;;;;;;;;;;;;;5109648;28;20574;-74
2023/05/31 09:55:48;;;;;;;;;;;;;;;;;;5110986;28;20048;-75
2023/05/31 09:58:15;;;;;;;;;;;;;;;;;;5112111;28;19980;-74
2023/05/31 10:00:42;;;;;;;;;;;;;;;;;;5101768;28;20024;-74
2023/05/31 10:03:09;;;;;;;;;;;;;;;;;;5113598;27;20310;-80
2023/05/31 10:05:36;;;;;;;;;;;;;;;;;;5113291;28;19923;-76
2023/05/31 10:08:03;;;;;;;;;;;;;;;;;;5112540;28;19923;-75
2023/05/31 10:10:30;;;;;;;;;;;;;;;;;;5112476;28;20006;-79
2023/05/31 10:12:57;;;;;;;;;;;;;;;;;;5114346;28;20343;-77
2023/05/31 10:15:24;;;;;;;;;;;;;;;;;;5111746;28;19966;-78
2023/05/31 10:17:51;;;;;;;;;;;;;;;;;;5113782;28;19935;-77
2023/05/31 10:20:18;;;;;;;;;;;;;;;;;;5123478;27;20285;-78
2023/05/31 10:22:46;;;;;;;;;;;;;;;;;;5105763;27;19977;-78
2023/05/31 10:25:13;;;;;;;;;;;;;;;;;;5103422;28;19939;-79
2023/05/31 10:27:39;;;;;;;;;;;;;;;;;;5111702;28;20059;-78
2023/05/31 10:30:07;;;;;;;;;;;;;;;;;;5113909;28;19985;-80
2023/05/31 10:32:34;;;;;;;;;;;;;;;;;;5113618;28;19946;-73
2023/05/31 10:35:01;;;;;;;;;;;;;;;;;;5113002;28;19965;-79
2023/05/31 10:37:28;;;;;;;;;;;;;;;;;;5112893;27;20011;-79
2023/05/31 10:39:55;;;;;;;;;;;;;;;;;;5111751;28;20022;-74
2023/05/31 10:42:22;;;;;;;;;;;;;;;;;;5112629;28;19924;-74
2023/05/31 10:44:49;;;;;;;;;;;;;;;;;;5112049;28;19923;-74
2023/05/31 10:47:16;;;;;;;;;;;;;;;;;;5111302;28;19923;-74
2023/05/31 10:49:43;;;;;;;;;;;;;;;;;;5108790;28;19947;-73
2023/05/31 10:52:14;;;;;;;;;;;;;;;;;;5098670;27;19930;-75
2023/05/31 10:54:41;;;;;;;;;;;;;;;;;;5096590;28;19951;-82
2023/05/31 10:57:10;;;;;;;;;;;;;;;;;;5106563;28;20030;-80
2023/05/31 10:59:37;;;;;;;;;;;;;;;;;;5102706;28;19925;-74
2023/05/31 11:02:04;;;;;;;;;;;;;;;;;;5099025;28;20354;-75
2023/05/31 11:04:31;;;;;;;;;;;;;;;;;;5099589;28;20010;-75
2023/05/31 11:06:58;;;;;;;;;;;;;;;;;;5099904;28;19924;-76
2023/05/31 11:09:25;;;;;;;;;;;;;;;;;;5101725;27;19931;-76
2023/05/31 11:11:52;;;;;;;;;;;;;;;;;;5106695;28;19928;-76
2023/05/31 11:14:25;;;;;;;;;;;;;;;;;;5099969;28;20307;-77
2023/05/31 11:16:53;;;;;;;;;;;;;;;;;;5098352;28;20033;-73
2023/05/31 11:19:20;;;;;;;;;;;;;;;;;;5105453;28;20289;-76
2023/05/31 11:21:47;;;;;;;;;;;;;;;;;;5091835;28;19931;-77
2023/05/31 11:24:14;;;;;;;;;;;;;;;;;;5102038;28;19923;-75
2023/05/31 11:26:41;;;;;;;;;;;;;;;;;;5107270;28;20016;-75
2023/05/31 11:29:08;;;;;;;;;;;;;;;;;;5100906;28;20010;-75
2023/05/31 11:31:35;;;;;;;;;;;;;;;;;;5102570;28;20421;-75
2023/05/31 11:34:02;;;;;;;;;;;;;;;;;;5102324;28;19924;-75
2023/05/31 11:36:33;;;;;;;;;;;;;;;;;;5102262;28;19967;-75
2023/05/31 11:39:00;;;;;;;;;;;;;;;;;;5103973;28;19993;-76
2023/05/31 11:41:28;;;;;;;;;;;;;;;;;;5104409;28;19932;-75
2023/05/31 11:43:59;;;;;;;;;;;;;;;;;;5104855;27;20003;-75
2023/05/31 11:46:26;;;;;;;;;;;;;;;;;;5099074;28;20404;-75
2023/05/31 11:48:53;;;;;;;;;;;;;;;;;;5105439;28;20357;-75
2023/05/31 11:51:20;;;;;;;;;;;;;;;;;;5109896;28;19924;-76
2023/05/31 11:53:47;;;;;;;;;;;;;;;;;;5107030;28;20019;-76
2023/05/31 11:56:14;;;;;;;;;;;;;;;;;;5104540;28;19979;-76
2023/05/31 11:58:41;;;;;;;;;;;;;;;;;;5102048;28;20018;-75
2023/05/31 12:01:08;;;;;;;;;;;;;;;;;;5107596;28;19969;-76
2023/05/31 12:03:35;;;;;;;;;;;;;;;;;;5104305;28;19928;-76
2023/05/31 12:06:04;;;;;;;;;;;;;;;;;;5110431;28;19969;-76
2023/05/31 12:08:31;;;;;;;;;;;;;;;;;;5107362;28;20007;-76
2023/05/31 12:10:58;;;;;;;;;;;;;;;;;;5106800;28;20394;-74
2023/05/31 12:13:25;;;;;;;;;;;;;;;;;;5107989;28;20022;-74
2023/05/31 12:15:55;;;;;;;;;;;;;;;;;;5105170;28;19967;-75
2023/05/31 12:18:23;;;;;;;;;;;;;;;;;;5104737;28;19973;-75
2023/05/31 12:20:50;;;;;;;;;;;;;;;;;;5112067;28;19998;-75
2023/05/31 12:23:18;;;;;;;;;;;;;;;;;;5112088;28;20010;-75
2023/05/31 12:25:46;;;;;;;;;;;;;;;;;;5109768;28;19924;-77
2023/05/31 12:28:13;;;;;;;;;;;;;;;;;;5102677;28;19924;-75
2023/05/31 12:30:40;;;;;;;;;;;;;;;;;;5109136;28;20332;-75
2023/05/31 12:33:07;;;;;;;;;;;;;;;;;;5108806;28;19924;-75
2023/05/31 12:35:35;;;;;;;;;;;;;;;;;;5101446;28;20148;-76
2023/05/31 12:38:01;;;;;;;;;;;;;;;;;;5103664;28;19930;-75
2023/05/31 12:40:28;;;;;;;;;;;;;;;;;;5101932;28;20003;-75
2023/05/31 12:42:55;;;;;;;;;;;;;;;;;;5112021;28;19923;-75
2023/05/31 12:45:22;;;;;;;;;;;;;;;;;;5107742;28;20018;-75
2023/05/31 12:47:49;;;;;;;;;;;;;;;;;;5109204;28;19972;-75
2023/05/31 12:50:16;;;;;;;;;;;;;;;;;;5110532;28;20014;-75
2023/05/31 12:52:43;;;;;;;;;;;;;;;;;;5107255;28;19923;-76
2023/05/31 12:55:10;;;;;;;;;;;;;;;;;;5107847;28;19923;-76
2023/05/31 12:57:37;;;;;;;;;;;;;;;;;;5107364;28;19927;-76
2023/05/31 13:00:10;;;;;;;;;;;;;;;;;;5108315;28;20358;-76
2023/05/31 13:02:38;;;;;;;;;;;;;;;;;;5102080;28;19942;-75
2023/05/31 13:05:05;;;;;;;;;;;;;;;;;;5106568;28;19924;-77
2023/05/31 13:07:32;;;;;;;;;;;;;;;;;;5107004;28;20559;-76
2023/05/31 13:09:59;;;;;;;;;;;;;;;;;;5103924;28;20026;-75
2023/05/31 13:12:26;;;;;;;;;;;;;;;;;;5108719;28;19931;-76
2023/05/31 13:14:53;;;;;;;;;;;;;;;;;;5103484;28;19924;-75
2023/05/31 13:17:20;;;;;;;;;;;;;;;;;;5106915;27;19924;-76
2023/05/31 13:19:47;;;;;;;;;;;;;;;;;;5115445;27;19924;-76
2023/05/31 13:22:14;;;;;;;;;;;;;;;;;;5111588;27;19955;-76
2023/05/31 13:24:41;;;;;;;;;;;;;;;;;;5109696;28;19970;-76
2023/05/31 13:27:08;;;;;;;;;;;;;;;;;;5113688;27;19971;-75
2023/05/31 13:29:35;;;;;;;;;;;;;;;;;;5110536;28;19943;-76
2023/05/31 13:32:02;;;;;;;;;;;;;;;;;;5106478;28;19971;-76
2023/05/31 13:34:29;;;;;;;;;;;;;;;;;;5111587;28;19924;-75
2023/05/31 13:36:57;;;;;;;;;;;;;;;;;;5113513;28;20010;-76
2023/05/31 13:39:24;;;;;;;;;;;;;;;;;;5113128;28;19974;-75
2023/05/31 13:41:51;;;;;;;;;;;;;;;;;;5111449;28;19923;-75
2023/05/31 13:44:18;;;;;;;;;;;;;;;;;;5112431;27;19928;-76
2023/05/31 13:46:45;;;;;;;;;;;;;;;;;;5108286;28;19924;-76
2023/05/31 13:49:15;;;;;;;;;;;;;;;;;;5114365;28;19931;-75
2023/05/31 13:51:42;;;;;;;;;;;;;;;;;;5114706;28;19988;-75
2023/05/31 13:54:09;;;;;;;;;;;;;;;;;;5115685;28;20010;-75
2023/05/31 13:56:36;;;;;;;;;;;;;;;;;;5111400;28;20018;-75
2023/05/31 13:59:03;;;;;;;;;;;;;;;;;;5106010;27;19938;-74
2023/05/31 14:01:30;;;;;;;;;;;;;;;;;;5105674;28;19931;-76
2023/05/31 14:03:57;;;;;;;;;;;;;;;;;;5112987;28;20406;-76
2023/05/31 14:06:24;;;;;;;;;;;;;;;;;;5113927;28;20656;-76
2023/05/31 14:08:51;;;;;;;;;;;;;;;;;;5110840;28;19975;-76
2023/05/31 14:11:18;;;;;;;;;;;;;;;;;;5109618;28;20019;-76
2023/05/31 14:13:45;;;;;;;;;;;;;;;;;;5111675;28;20308;-75
2023/05/31 14:16:12;;;;;;;;;;;;;;;;;;5119014;27;19923;-75
2023/05/31 14:18:39;;;;;;;;;;;;;;;;;;5110084;27;19928;-75
2023/05/31 14:21:06;;;;;;;;;;;;;;;;;;5114085;28;20438;-74
2023/05/31 14:23:33;;;;;;;;;;;;;;;;;;5112260;28;20317;-75
2023/05/31 14:26:00;;;;;;;;;;;;;;;;;;5110604;28;19923;-76
2023/05/31 14:28:27;;;;;;;;;;;;;;;;;;5112144;28;20014;-75
2023/05/31 14:30:54;;;;;;;;;;;;;;;;;;5103749;28;20018;-76
2023/05/31 14:33:23;;;;;;;;;;;;;;;;;;5112678;27;20350;-75
2023/05/31 14:35:50;;;;;;;;;;;;;;;;;;5121349;27;20023;-74
2023/05/31 14:38:19;;;;;;;;;;;;;;;;;;5109061;28;19930;-76
2023/05/31 14:40:45;;;;;;;;;;;;;;;;;;5111728;28;20093;-76
2023/05/31 14:43:12;;;;;;;;;;;;;;;;;;5112213;28;19962;-76
2023/05/31 14:45:40;;;;;;;;;;;;;;;;;;5113101;28;19928;-76
2023/05/31 14:48:07;;;;;;;;;;;;;;;;;;5110490;28;19930;-76
2023/05/31 14:50:34;;;;;;;;;;;;;;;;;;5112977;27;19929;-76
2023/05/31 14:53:01;;;;;;;;;;;;;;;;;;5112381;27;19950;-76
2023/05/31 14:55:28;;;;;;;;;;;;;;;;;;5107958;28;20390;-75
2023/05/31 14:57:55;;;;;;;;;;;;;;;;;;5111443;28;20434;-76
2023/05/31 15:00:22;;;;;;;;;;;;;;;;;;5109549;28;19924;-76
2023/05/31 15:02:49;;;;;;;;;;;;;;;;;;5112631;28;20382;-76
2023/05/31 15:05:16;;;;;;;;;;;;;;;;;;5113407;28;19928;-77
2023/05/31 15:07:43;;;;;;;;;;;;;;;;;;5110692;28;20374;-75
2023/05/31 15:10:10;;;;;;;;;;;;;;;;;;5107063;28;20302;-75
2023/05/31 15:12:37;;;;;;;;;;;;;;;;;;5112259;28;19932;-76
2023/05/31 15:15:04;;;;;;;;;;;;;;;;;;5110455;28;20018;-75
2023/05/31 15:17:31;;;;;;;;;;;;;;;;;;5096946;28;19923;-76
2023/05/31 15:19:58;;;;;;;;;;;;;;;;;;5109525;28;19993;-76
2023/05/31 15:22:25;;;;;;;;;;;;;;;;;;5113077;28;20382;-76
2023/05/31 15:24:52;;;;;;;;;;;;;;;;;;5112067;27;19963;-76
2023/05/31 15:27:19;;;;;;;;;;;;;;;;;;5111307;28;19923;-76
2023/05/31 15:29:46;;;;;;;;;;;;;;;;;;5111333;28;20032;-76
2023/05/31 15:32:13;;;;;;;;;;;;;;;;;;5110208;28;20022;-76
2023/05/31 15:34:40;;;;;;;;;;;;;;;;;;5110916;28;19971;-76
2023/05/31 15:37:07;;;;;;;;;;;;;;;;;;5111981;28;20382;-76
2023/05/31 15:39:35;;;;;;;;;;;;;;;;;;5105317;28;19967;-76
2023/05/31 15:42:03;;;;;;;;;;;;;;;;;;5106495;28;19936;-76
2023/05/31 15:44:30;;;;;;;;;;;;;;;;;;5110916;28;19924;-75
2023/05/31 15:46:57;;;;;;;;;;;;;;;;;;5109476;28;20007;-76
2023/05/31 15:49:24;;;;;;;;;;;;;;;;;;5111835;28;19930;-76
2023/05/31 15:51:51;;;;;;;;;;;;;;;;;;5112623;28;19974;-75
2023/05/31 15:54:18;;;;;;;;;;;;;;;;;;5111302;28;19924;-76
2023/05/31 15:56:45;;;;;;;;;;;;;;;;;;5104695;28;19935;-75
2023/05/31 15:59:12;;;;;;;;;;;;;;;;;;5109792;28;20026;-75
2023/05/31 16:01:39;;;;;;;;;;;;;;;;;;5111009;28;19979;-78
2023/05/31 16:04:06;;;;;;;;;;;;;;;;;;5097260;28;20048;-79
2023/05/31 16:06:33;;;;;;;;;;;;;;;;;;5101927;28;19971;-80
2023/05/31 16:09:00;;;;;;;;;;;;;;;;;;5111185;28;19993;-79
2023/05/31 16:11:29;;;;;;;;;;;;;;;;;;5112345;28;20007;-79
2023/05/31 16:13:56;;;;;;;;;;;;;;;;;;5109695;28;20014;-78
2023/05/31 16:16:23;;;;;;;;;;;;;;;;;;5122765;28;20381;-79
2023/05/31 16:18:50;;;;;;;;;;;;;;;;;;5118975;28;20366;-78
2023/05/31 16:21:19;;;;;;;;;;;;;;;;;;5111332;28;19934;-79
2023/05/31 16:23:46;;;;;;;;;;;;;;;;;;5111634;28;20508;-79
2023/05/31 16:26:13;;;;;;;;;;;;;;;;;;5111071;28;19962;-80
2023/05/31 16:28:40;;;;;;;;;;;;;;;;;;5110204;28;20426;-79
2023/05/31 16:31:07;;;;;;;;;;;;;;;;;;5110186;28;19924;-80
2023/05/31 16:33:34;;;;;;;;;;;;;;;;;;5110113;28;20016;-80
2023/05/31 16:36:03;;;;;;;;;;;;;;;;;;5107379;28;21727;-80
2023/05/31 16:38:30;;;;;;;;;;;;;;;;;;5095340;28;19935;-80
2023/05/31 16:40:57;;;;;;;;;;;;;;;;;;5109913;28;19935;-80
2023/05/31 16:43:24;;;;;;;;;;;;;;;;;;5110061;28;19931;-79
2023/05/31 16:45:51;;;;;;;;;;;;;;;;;;5110642;28;19923;-81